sensor_id;sensor_type;location;lat;lon;timestamp;pressure;altitude;pressure_sealevel;temperature;humidity
25610;BME280;13479;49.044;8.716;2022-11-28T05:02:40;98618.69;;;4.60;75.61
25610;BME280;13479;49.044;8.716;2022-11-28T05:05:19;98644.31;;;4.56;75.50
25610;BME280;13479;49.044;8.716;2022-11-28T05:07:44;98639.81;;;4.58;75.21
25610;BME280;13479;49.044;8.716;2022-11-28T05:10:11;98644.44;;;4.68;75.59
25610;BME280;13479;49.044;8.716;2022-11-28T05:12:37;98646.13;;;4.69;75.48
25610;BME280;13479;49.044;8.716;2022-11-28T05:15:03;98649.31;;;4.74;75.16
25610;BME280;13479;49.044;8.716;2022-11-28T05:17:29;98658.13;;;4.73;75.06
25610;BME280;13479;49.044;8.716;2022-11-28T05:19:54;98665.09;;;4.74;75.17
25610;BME280;13479;49.044;8.716;2022-11-28T05:22:19;98666.22;;;4.70;75.20
25610;BME280;13479;49.044;8.716;2022-11-28T05:24:44;98660.22;;;4.68;75.01
25610;BME280;13479;49.044;8.716;2022-11-28T05:27:10;98652.75;;;4.61;75.54
25610;BME280;13479;49.044;8.716;2022-11-28T05:29:35;98651.81;;;4.62;75.11
25610;BME280;13479;49.044;8.716;2022-11-28T05:32:01;98639.63;;;4.61;75.28
25610;BME280;13479;49.044;8.716;2022-11-28T05:34:26;98630.34;;;4.56;75.27
25610;BME280;13479;49.044;8.716;2022-11-28T05:36:51;98627.84;;;4.54;75.47
25610;BME280;13479;49.044;8.716;2022-11-28T05:39:17;98636.44;;;4.56;75.57
25610;BME280;13479;49.044;8.716;2022-11-28T05:41:42;98655.81;;;4.81;75.30
25610;BME280;13479;49.044;8.716;2022-11-28T05:44:08;98696.88;;;4.97;74.52
25610;BME280;13479;49.044;8.716;2022-11-28T05:46:34;98716.22;;;4.95;74.09
25610;BME280;13479;49.044;8.716;2022-11-28T05:48:59;98710.72;;;4.86;74.56
25610;BME280;13479;49.044;8.716;2022-11-28T05:51:24;98682.44;;;4.76;74.77
25610;BME280;13479;49.044;8.716;2022-11-28T05:53:49;98644.56;;;4.53;76.10
25610;BME280;13479;49.044;8.716;2022-11-28T05:56:17;98605.31;;;4.50;76.17
25610;BME280;13479;49.044;8.716;2022-11-28T05:58:44;98597.34;;;4.64;75.98
25610;BME280;13479;49.044;8.716;2022-11-28T06:03:35;98636.66;;;4.79;75.90
25610;BME280;13479;49.044;8.716;2022-11-28T06:06:00;98656.13;;;4.76;75.31
25610;BME280;13479;49.044;8.716;2022-11-28T06:08:25;98654.34;;;4.90;75.04
25610;BME280;13479;49.044;8.716;2022-11-28T06:10:58;98657.09;;;4.88;75.01
25610;BME280;13479;49.044;8.716;2022-11-28T06:13:23;98681.72;;;4.87;75.57
25610;BME280;13479;49.044;8.716;2022-11-28T06:15:49;98680.03;;;4.86;74.63
25610;BME280;13479;49.044;8.716;2022-11-28T06:18:14;98658.69;;;4.78;75.60
25610;BME280;13479;49.044;8.716;2022-11-28T06:20:39;98635.72;;;4.80;75.69
25610;BME280;13479;49.044;8.716;2022-11-28T06:23:04;98649.91;;;4.90;75.41
25610;BME280;13479;49.044;8.716;2022-11-28T06:25:29;98665.63;;;4.92;74.62
25610;BME280;13479;49.044;8.716;2022-11-28T06:27:55;98659.19;;;4.70;75.98
25610;BME280;13479;49.044;8.716;2022-11-28T06:30:20;98614.16;;;4.62;75.62
25610;BME280;13479;49.044;8.716;2022-11-28T06:32:45;98587.22;;;4.58;76.54
25610;BME280;13479;49.044;8.716;2022-11-28T06:35:10;98587.66;;;4.65;76.77
25610;BME280;13479;49.044;8.716;2022-11-28T06:37:36;98617.00;;;4.72;76.67
25610;BME280;13479;49.044;8.716;2022-11-28T06:40:01;98631.63;;;4.63;76.76
25610;BME280;13479;49.044;8.716;2022-11-28T06:42:27;98631.41;;;4.66;76.66
25610;BME280;13479;49.044;8.716;2022-11-28T06:44:52;98640.56;;;4.60;77.36
25610;BME280;13479;49.044;8.716;2022-11-28T06:47:18;98640.25;;;4.65;76.87
25610;BME280;13479;49.044;8.716;2022-11-28T06:49:43;98653.69;;;4.60;76.69
25610;BME280;13479;49.044;8.716;2022-11-28T06:52:08;98666.34;;;4.55;76.87
25610;BME280;13479;49.044;8.716;2022-11-28T06:54:34;98671.38;;;4.58;76.75
25610;BME280;13479;49.044;8.716;2022-11-28T06:56:59;98674.00;;;4.58;77.08
25610;BME280;13479;49.044;8.716;2022-11-28T06:59:24;98694.56;;;5.05;76.21
25610;BME280;13479;49.044;8.716;2022-11-28T07:01:50;98720.94;;;4.90;76.12
25610;BME280;13479;49.044;8.716;2022-11-28T07:04:15;98738.72;;;4.87;75.90
25610;BME280;13479;49.044;8.716;2022-11-28T07:06:40;98744.72;;;4.89;75.68
25610;BME280;13479;49.044;8.716;2022-11-28T07:09:05;98751.13;;;4.85;76.05
25610;BME280;13479;49.044;8.716;2022-11-28T07:11:31;98753.47;;;4.89;75.50
25610;BME280;13479;49.044;8.716;2022-11-28T07:13:59;98773.91;;;4.99;75.34
25610;BME280;13479;49.044;8.716;2022-11-28T07:16:32;98811.75;;;5.23;73.85
25610;BME280;13479;49.044;8.716;2022-11-28T07:18:58;98811.81;;;5.09;73.99
25610;BME280;13479;49.044;8.716;2022-11-28T07:21:24;98790.22;;;5.04;74.34
25610;BME280;13479;49.044;8.716;2022-11-28T07:23:50;98768.66;;;4.99;74.33
25610;BME280;13479;49.044;8.716;2022-11-28T07:26:17;98763.16;;;5.02;74.63
25610;BME280;13479;49.044;8.716;2022-11-28T07:28:44;98760.22;;;4.93;74.64
25610;BME280;13479;49.044;8.716;2022-11-28T07:31:21;98744.63;;;4.90;74.72
25610;BME280;13479;49.044;8.716;2022-11-28T07:33:49;98740.44;;;5.01;74.80
25610;BME280;13479;49.044;8.716;2022-11-28T07:36:17;98742.53;;;4.95;74.64
25610;BME280;13479;49.044;8.716;2022-11-28T07:38:50;98735.59;;;4.94;74.66
25610;BME280;13479;49.044;8.716;2022-11-28T07:41:17;98723.41;;;5.06;75.21
25610;BME280;13479;49.044;8.716;2022-11-28T07:43:44;98730.88;;;5.13;75.07
25610;BME280;13479;49.044;8.716;2022-11-28T07:46:14;98741.81;;;5.19;74.84
25610;BME280;13479;49.044;8.716;2022-11-28T07:48:39;98761.72;;;5.23;74.21
25610;BME280;13479;49.044;8.716;2022-11-28T07:51:10;98765.31;;;5.22;75.02
25610;BME280;13479;49.044;8.716;2022-11-28T07:53:36;98746.56;;;5.27;74.64
25610;BME280;13479;49.044;8.716;2022-11-28T07:56:03;98742.53;;;5.34;74.42
25610;BME280;13479;49.044;8.716;2022-11-28T07:58:30;98766.53;;;5.43;74.33
25610;BME280;13479;49.044;8.716;2022-11-28T08:00:56;98762.75;;;5.47;73.97
25610;BME280;13479;49.044;8.716;2022-11-28T08:03:21;98796.03;;;5.61;73.85
25610;BME280;13479;49.044;8.716;2022-11-28T08:05:47;98812.69;;;5.61;73.02
25610;BME280;13479;49.044;8.716;2022-11-28T08:08:17;98829.72;;;5.81;72.34
25610;BME280;13479;49.044;8.716;2022-11-28T08:10:44;98856.16;;;5.93;71.21
25610;BME280;13479;49.044;8.716;2022-11-28T08:13:10;98823.94;;;5.76;71.75
25610;BME280;13479;49.044;8.716;2022-11-28T08:15:36;98774.09;;;5.73;72.91
25610;BME280;13479;49.044;8.716;2022-11-28T08:18:01;98743.75;;;5.80;72.70
25610;BME280;13479;49.044;8.716;2022-11-28T08:20:27;98725.53;;;5.77;73.52
25610;BME280;13479;49.044;8.716;2022-11-28T08:22:52;98770.59;;;6.11;72.19
25610;BME280;13479;49.044;8.716;2022-11-28T08:25:18;98795.81;;;6.02;72.22
25610;BME280;13479;49.044;8.716;2022-11-28T08:27:43;98765.44;;;5.97;72.43
25610;BME280;13479;49.044;8.716;2022-11-28T08:30:09;98731.28;;;6.08;73.38
25610;BME280;13479;49.044;8.716;2022-11-28T08:32:34;98699.66;;;6.08;73.02
25610;BME280;13479;49.044;8.716;2022-11-28T08:34:59;98726.84;;;6.33;72.22
25610;BME280;13479;49.044;8.716;2022-11-28T08:37:24;98796.91;;;6.48;71.62
25610;BME280;13479;49.044;8.716;2022-11-28T08:39:50;98827.38;;;6.53;70.86
25610;BME280;13479;49.044;8.716;2022-11-28T08:42:15;98824.28;;;6.59;70.40
25610;BME280;13479;49.044;8.716;2022-11-28T08:44:41;98817.31;;;6.46;70.60
25610;BME280;13479;49.044;8.716;2022-11-28T08:47:06;98781.94;;;6.49;70.39
25610;BME280;13479;49.044;8.716;2022-11-28T08:49:31;98761.91;;;6.46;70.76
25610;BME280;13479;49.044;8.716;2022-11-28T08:51:56;98757.25;;;6.50;70.57
25610;BME280;13479;49.044;8.716;2022-11-28T08:54:22;98752.47;;;6.31;71.20
25610;BME280;13479;49.044;8.716;2022-11-28T08:56:47;98711.38;;;6.28;71.56
25610;BME280;13479;49.044;8.716;2022-11-28T08:59:12;98692.09;;;6.39;71.85
25610;BME280;13479;49.044;8.716;2022-11-28T09:01:37;98715.44;;;6.57;71.51
25610;BME280;13479;49.044;8.716;2022-11-28T09:04:03;98727.44;;;6.61;71.51
25610;BME280;13479;49.044;8.716;2022-11-28T09:06:29;98734.34;;;6.75;71.07
25610;BME280;13479;49.044;8.716;2022-11-28T09:08:54;98752.47;;;6.79;70.55
25610;BME280;13479;49.044;8.716;2022-11-28T09:11:20;98794.75;;;7.02;69.33
25610;BME280;13479;49.044;8.716;2022-11-28T09:13:46;98838.19;;;7.09;68.80
25610;BME280;13479;49.044;8.716;2022-11-28T09:16:13;98823.47;;;7.18;68.05
25610;BME280;13479;49.044;8.716;2022-11-28T09:18:39;98785.63;;;7.06;68.80
25610;BME280;13479;49.044;8.716;2022-11-28T09:21:06;98747.66;;;7.20;68.87
25610;BME280;13479;49.044;8.716;2022-11-28T09:23:36;98771.53;;;7.30;68.31
25610;BME280;13479;49.044;8.716;2022-11-28T09:26:07;98765.50;;;7.28;68.01
25610;BME280;13479;49.044;8.716;2022-11-28T09:28:33;98786.66;;;7.51;67.02
25610;BME280;13479;49.044;8.716;2022-11-28T09:31:02;98815.50;;;7.65;66.23
25610;BME280;13479;49.044;8.716;2022-11-28T09:33:27;98802.78;;;7.59;66.11
25610;BME280;13479;49.044;8.716;2022-11-28T09:35:53;98773.22;;;7.54;66.46
25610;BME280;13479;49.044;8.716;2022-11-28T09:38:20;98768.69;;;7.67;65.87
25610;BME280;13479;49.044;8.716;2022-11-28T09:40:45;98783.59;;;7.80;65.41
25610;BME280;13479;49.044;8.716;2022-11-28T09:43:28;98755.22;;;7.82;65.14
25610;BME280;13479;49.044;8.716;2022-11-28T09:45:56;98758.56;;;7.84;65.26
25610;BME280;13479;49.044;8.716;2022-11-28T09:48:29;98757.25;;;7.78;65.36
25610;BME280;13479;49.044;8.716;2022-11-28T09:51:08;98709.69;;;7.55;66.08
25610;BME280;13479;49.044;8.716;2022-11-28T09:53:45;98629.25;;;7.60;66.52
25610;BME280;13479;49.044;8.716;2022-11-28T09:56:14;98626.97;;;7.66;67.00
25610;BME280;13479;49.044;8.716;2022-11-28T09:58:56;98643.72;;;7.88;66.13
25610;BME280;13479;49.044;8.716;2022-11-28T10:04:25;98641.56;;;7.93;66.74
25610;BME280;13479;49.044;8.716;2022-11-28T10:20:10;98645.66;;;8.51;66.70
25610;BME280;13479;49.044;8.716;2022-11-28T10:22:53;98662.66;;;8.70;66.61
25610;BME280;13479;49.044;8.716;2022-11-28T10:25:27;98667.91;;;8.91;66.66
25610;BME280;13479;49.044;8.716;2022-11-28T10:27:53;98692.00;;;9.09;66.32
25610;BME280;13479;49.044;8.716;2022-11-28T10:30:24;98734.75;;;9.25;65.48
25610;BME280;13479;49.044;8.716;2022-11-28T10:33:01;98766.66;;;9.45;64.49
25610;BME280;13479;49.044;8.716;2022-11-28T10:35:34;98768.97;;;9.60;64.05
25610;BME280;13479;49.044;8.716;2022-11-28T10:38:12;98751.03;;;9.73;64.08
25610;BME280;13479;49.044;8.716;2022-11-28T10:49:11;98742.63;;;10.18;62.17
25610;BME280;13479;49.044;8.716;2022-11-28T10:51:53;98756.91;;;10.37;61.06
25610;BME280;13479;49.044;8.716;2022-11-28T10:54:54;98742.13;;;10.44;59.86
25610;BME280;13479;49.044;8.716;2022-11-28T10:57:58;98734.59;;;10.49;58.43
25610;BME280;13479;49.044;8.716;2022-11-28T11:00:19;98705.28;;;10.41;58.69
25610;BME280;13479;49.044;8.716;2022-11-28T11:02:47;98657.34;;;10.23;59.81
25610;BME280;13479;49.044;8.716;2022-11-28T11:05:16;98637.34;;;10.09;60.18
25610;BME280;13479;49.044;8.716;2022-11-28T11:11:18;98510.47;;;9.75;62.30
25610;BME280;13479;49.044;8.716;2022-11-28T11:14:02;98500.84;;;9.94;61.43
25610;BME280;13479;49.044;8.716;2022-11-28T11:16:50;98524.56;;;9.95;60.96
25610;BME280;13479;49.044;8.716;2022-11-28T11:19:32;98548.59;;;9.94;61.04
25610;BME280;13479;49.044;8.716;2022-11-28T11:24:43;98541.34;;;9.96;61.01
25610;BME280;13479;49.044;8.716;2022-11-28T11:27:19;98575.66;;;10.07;60.64
25610;BME280;13479;49.044;8.716;2022-11-28T11:29:45;98583.47;;;9.99;60.72
25610;BME280;13479;49.044;8.716;2022-11-28T11:32:19;98575.66;;;9.87;61.41
25610;BME280;13479;49.044;8.716;2022-11-28T11:34:46;98527.63;;;9.81;61.89
25610;BME280;13479;49.044;8.716;2022-11-28T11:39:52;98400.69;;;9.58;64.13
25610;BME280;13479;49.044;8.716;2022-11-28T11:42:25;98372.56;;;9.47;65.50
25610;BME280;13479;49.044;8.716;2022-11-28T11:44:52;98372.59;;;9.27;66.51
25610;BME280;13479;49.044;8.716;2022-11-28T11:47:17;98378.03;;;9.16;67.67
25610;BME280;13479;49.044;8.716;2022-11-28T11:49:47;98399.91;;;9.38;68.06
25610;BME280;13479;49.044;8.716;2022-11-28T11:52:20;98432.53;;;9.48;67.17
25610;BME280;13479;49.044;8.716;2022-11-28T11:57:23;98452.88;;;9.67;67.50
25610;BME280;13479;49.044;8.716;2022-11-28T11:59:55;98489.97;;;9.77;66.97
25610;BME280;13479;49.044;8.716;2022-11-28T12:04:57;98467.78;;;9.68;67.86
25610;BME280;13479;49.044;8.716;2022-11-28T12:07:38;98442.97;;;9.60;68.42
25610;BME280;13479;49.044;8.716;2022-11-28T12:10:10;98435.31;;;9.56;69.25
25610;BME280;13479;49.044;8.716;2022-11-28T12:12:37;98449.25;;;9.58;69.58
25610;BME280;13479;49.044;8.716;2022-11-28T12:15:03;98457.59;;;9.64;70.05
25610;BME280;13479;49.044;8.716;2022-11-28T12:20:37;98517.88;;;10.01;68.88
25610;BME280;13479;49.044;8.716;2022-11-28T12:26:07;98596.28;;;10.33;67.59
25610;BME280;13479;49.044;8.716;2022-11-28T12:34:36;98636.41;;;10.40;66.76
25610;BME280;13479;49.044;8.716;2022-11-28T12:40:14;98567.28;;;10.41;68.01
25610;BME280;13479;49.044;8.716;2022-11-28T12:42:56;98539.31;;;10.37;68.36
25610;BME280;13479;49.044;8.716;2022-11-28T12:45:38;98505.00;;;10.26;69.09
25610;BME280;13479;49.044;8.716;2022-11-28T12:48:22;98471.75;;;10.31;69.52
25610;BME280;13479;49.044;8.716;2022-11-28T12:51:01;98486.25;;;10.47;69.31
25610;BME280;13479;49.044;8.716;2022-11-28T12:56:33;98458.88;;;10.36;70.24
25610;BME280;13479;49.044;8.716;2022-11-28T13:01:57;98465.19;;;10.26;70.97
25610;BME280;13479;49.044;8.716;2022-11-28T13:07:11;98482.91;;;10.25;71.34
25610;BME280;13479;49.044;8.716;2022-11-28T13:10:00;98477.38;;;10.18;72.89
25610;BME280;13479;49.044;8.716;2022-11-28T13:12:46;98498.59;;;10.18;73.18
25610;BME280;13479;49.044;8.716;2022-11-28T13:15:29;98508.09;;;10.11;73.93
25610;BME280;13479;49.044;8.716;2022-11-28T13:18:32;98526.38;;;10.14;73.99
25610;BME280;13479;49.044;8.716;2022-11-28T13:21:00;98529.56;;;10.08;74.74
25610;BME280;13479;49.044;8.716;2022-11-28T13:23:37;98538.53;;;10.07;75.31
25610;BME280;13479;49.044;8.716;2022-11-28T13:26:08;98555.13;;;10.09;76.13
25610;BME280;13479;49.044;8.716;2022-11-28T13:28:55;98580.41;;;10.13;75.47
25610;BME280;13479;49.044;8.716;2022-11-28T13:31:24;98570.38;;;10.07;76.19
25610;BME280;13479;49.044;8.716;2022-11-28T13:33:53;98574.66;;;10.08;75.86
25610;BME280;13479;49.044;8.716;2022-11-28T13:42:03;98575.09;;;10.13;76.00
25610;BME280;13479;49.044;8.716;2022-11-28T13:44:51;98579.56;;;10.13;76.02
25610;BME280;13479;49.044;8.716;2022-11-28T13:49:45;98590.47;;;10.10;76.07
25610;BME280;13479;49.044;8.716;2022-11-28T13:55:03;98702.25;;;10.15;72.49
25610;BME280;13479;49.044;8.716;2022-11-28T13:57:29;98664.16;;;10.06;72.72
25610;BME280;13479;49.044;8.716;2022-11-28T14:00:05;98624.50;;;10.04;73.37
25610;BME280;13479;49.044;8.716;2022-11-28T14:02:40;98597.13;;;9.94;73.57
25610;BME280;13479;49.044;8.716;2022-11-28T14:05:16;98579.56;;;9.93;73.94
25610;BME280;13479;49.044;8.716;2022-11-28T14:07:45;98573.44;;;9.93;74.32
25610;BME280;13479;49.044;8.716;2022-11-28T14:10:34;98556.25;;;9.87;74.49
25610;BME280;13479;49.044;8.716;2022-11-28T14:18:51;98646.56;;;10.05;72.90
25610;BME280;13479;49.044;8.716;2022-11-28T14:21:49;98641.28;;;10.05;72.99
25610;BME280;13479;49.044;8.716;2022-11-28T14:24:55;98632.59;;;10.03;72.75
25610;BME280;13479;49.044;8.716;2022-11-28T14:27:29;98646.72;;;10.13;72.27
25610;BME280;13479;49.044;8.716;2022-11-28T14:29:56;98665.13;;;10.15;71.76
25610;BME280;13479;49.044;8.716;2022-11-28T14:32:33;98648.66;;;10.11;71.54
25610;BME280;13479;49.044;8.716;2022-11-28T14:35:00;98637.22;;;10.11;71.78
25610;BME280;13479;49.044;8.716;2022-11-28T14:39:54;98610.28;;;9.96;72.13
25610;BME280;13479;49.044;8.716;2022-11-28T14:44:52;98585.97;;;9.91;72.47
25610;BME280;13479;49.044;8.716;2022-11-28T14:49:47;98601.03;;;9.80;72.32
25610;BME280;13479;49.044;8.716;2022-11-28T14:52:21;98588.47;;;9.72;72.46
25610;BME280;13479;49.044;8.716;2022-11-28T14:54:48;98562.38;;;9.68;73.27
25610;BME280;13479;49.044;8.716;2022-11-28T14:57:27;98542.31;;;9.65;73.05
25610;BME280;13479;49.044;8.716;2022-11-28T14:59:56;98549.00;;;9.60;73.15
25610;BME280;13479;49.044;8.716;2022-11-28T15:02:32;98572.44;;;9.64;72.78
25610;BME280;13479;49.044;8.716;2022-11-28T15:05:42;98659.63;;;9.77;71.06
25610;BME280;13479;49.044;8.716;2022-11-28T15:11:16;98686.50;;;9.63;70.56
25610;BME280;13479;49.044;8.716;2022-11-28T15:16:38;98616.06;;;9.50;71.48
25610;BME280;13479;49.044;8.716;2022-11-28T15:19:32;98600.44;;;9.47;71.38
25610;BME280;13479;49.044;8.716;2022-11-28T15:21:58;98568.91;;;9.44;71.91
25610;BME280;13479;49.044;8.716;2022-11-28T15:27:14;98553.69;;;9.46;71.84
25610;BME280;13479;49.044;8.716;2022-11-28T15:29:40;98583.97;;;9.43;71.82
25610;BME280;13479;49.044;8.716;2022-11-28T15:32:06;98603.59;;;9.41;71.84
25610;BME280;13479;49.044;8.716;2022-11-28T15:34:36;98575.81;;;9.25;72.34
25610;BME280;13479;49.044;8.716;2022-11-28T15:37:13;98554.53;;;9.37;72.24
25610;BME280;13479;49.044;8.716;2022-11-28T15:39:40;98547.13;;;9.40;72.29
25610;BME280;13479;49.044;8.716;2022-11-28T15:42:20;98539.34;;;9.39;72.55
25610;BME280;13479;49.044;8.716;2022-11-28T15:44:47;98530.69;;;9.37;72.89
25610;BME280;13479;49.044;8.716;2022-11-28T15:47:19;98545.06;;;9.44;72.64
25610;BME280;13479;49.044;8.716;2022-11-28T15:49:57;98548.25;;;9.48;72.54
25610;BME280;13479;49.044;8.716;2022-11-28T15:52:22;98536.41;;;9.42;72.85
25610;BME280;13479;49.044;8.716;2022-11-28T15:54:48;98531.41;;;9.39;73.16
25610;BME280;13479;49.044;8.716;2022-11-28T15:57:23;98514.66;;;9.38;73.63
25610;BME280;13479;49.044;8.716;2022-11-28T15:59:50;98521.06;;;9.36;74.11
25610;BME280;13479;49.044;8.716;2022-11-28T16:02:27;98535.16;;;9.46;73.56
25610;BME280;13479;49.044;8.716;2022-11-28T16:04:59;98543.22;;;9.35;73.93
25610;BME280;13479;49.044;8.716;2022-11-28T16:07:28;98534.31;;;9.36;74.41
25610;BME280;13479;49.044;8.716;2022-11-28T16:09:58;98528.31;;;9.34;74.88
25610;BME280;13479;49.044;8.716;2022-11-28T16:12:27;98539.88;;;9.33;75.27
25610;BME280;13479;49.044;8.716;2022-11-28T16:14:53;98552.28;;;9.32;75.32
25610;BME280;13479;49.044;8.716;2022-11-28T16:17:32;98562.84;;;9.22;75.78
25610;BME280;13479;49.044;8.716;2022-11-28T16:19:59;98566.63;;;9.20;76.61
25610;BME280;13479;49.044;8.716;2022-11-28T16:22:35;98575.78;;;9.16;76.82
25610;BME280;13479;49.044;8.716;2022-11-28T16:25:20;98600.72;;;9.13;76.91
25610;BME280;13479;49.044;8.716;2022-11-28T16:27:46;98591.38;;;9.09;77.71
25610;BME280;13479;49.044;8.716;2022-11-28T16:30:34;98618.41;;;9.12;77.50
25610;BME280;13479;49.044;8.716;2022-11-28T16:33:02;98608.38;;;9.06;78.18
25610;BME280;13479;49.044;8.716;2022-11-28T16:35:32;98622.34;;;9.18;78.17
25610;BME280;13479;49.044;8.716;2022-11-28T16:38:26;98630.69;;;9.14;78.30
25610;BME280;13479;49.044;8.716;2022-11-28T16:40:58;98628.72;;;9.06;78.94
25610;BME280;13479;49.044;8.716;2022-11-28T16:43:33;98640.78;;;9.20;79.08
25610;BME280;13479;49.044;8.716;2022-11-28T16:46:00;98640.72;;;9.10;79.08
25610;BME280;13479;49.044;8.716;2022-11-28T16:48:28;98641.28;;;9.14;79.52
25610;BME280;13479;49.044;8.716;2022-11-28T16:53:47;98655.78;;;9.09;79.96
25610;BME280;13479;49.044;8.716;2022-11-28T17:01:31;98662.78;;;8.89;81.86
25610;BME280;13479;49.044;8.716;2022-11-28T17:03:57;98676.00;;;8.89;82.20
25610;BME280;13479;49.044;8.716;2022-11-28T17:06:42;98683.47;;;8.84;82.53
25610;BME280;13479;49.044;8.716;2022-11-28T17:09:11;98690.22;;;8.88;83.26
25610;BME280;13479;49.044;8.716;2022-11-28T17:11:40;98686.03;;;8.86;83.49
25610;BME280;13479;49.044;8.716;2022-11-28T17:14:06;98699.91;;;8.99;83.33
25610;BME280;13479;49.044;8.716;2022-11-28T17:16:32;98704.28;;;9.10;83.11
25610;BME280;13479;49.044;8.716;2022-11-28T17:18:58;98712.53;;;9.17;82.68
25610;BME280;13479;49.044;8.716;2022-11-28T17:21:43;98705.06;;;9.01;82.95
25610;BME280;13479;49.044;8.716;2022-11-28T17:24:20;98677.69;;;8.90;83.75
25610;BME280;13479;49.044;8.716;2022-11-28T17:26:47;98677.69;;;8.90;84.12
25610;BME280;13479;49.044;8.716;2022-11-28T17:29:13;98679.53;;;8.78;84.66
25610;BME280;13479;49.044;8.716;2022-11-28T17:31:39;98690.81;;;8.71;85.54
25610;BME280;13479;49.044;8.716;2022-11-28T17:34:23;98698.78;;;8.80;85.73
25610;BME280;13479;49.044;8.716;2022-11-28T17:36:49;98704.47;;;8.76;85.99
25610;BME280;13479;49.044;8.716;2022-11-28T17:39:14;98704.03;;;8.71;86.10
25610;BME280;13479;49.044;8.716;2022-11-28T17:41:40;98709.72;;;8.66;86.40
25610;BME280;13479;49.044;8.716;2022-11-28T17:44:15;98707.66;;;8.70;86.95
25610;BME280;13479;49.044;8.716;2022-11-28T17:46:41;98710.88;;;8.73;87.51
25610;BME280;13479;49.044;8.716;2022-11-28T17:49:06;98712.66;;;8.73;87.39
25610;BME280;13479;49.044;8.716;2022-11-28T17:51:31;98714.63;;;8.71;87.83
25610;BME280;13479;49.044;8.716;2022-11-28T17:53:57;98716.88;;;8.75;87.57
25610;BME280;13479;49.044;8.716;2022-11-28T17:56:22;98727.28;;;8.88;87.41
25610;BME280;13479;49.044;8.716;2022-11-28T17:58:47;98723.84;;;8.76;87.40
25610;BME280;13479;49.044;8.716;2022-11-28T18:01:15;98713.66;;;8.72;87.69
25610;BME280;13479;49.044;8.716;2022-11-28T18:03:41;98699.00;;;8.68;87.92
25610;BME280;13479;49.044;8.716;2022-11-28T18:06:13;98705.97;;;8.69;88.11
25610;BME280;13479;49.044;8.716;2022-11-28T18:08:38;98710.72;;;8.75;88.18
25610;BME280;13479;49.044;8.716;2022-11-28T18:11:05;98706.41;;;8.74;87.75
25610;BME280;13479;49.044;8.716;2022-11-28T18:13:32;98721.78;;;8.80;87.85
25610;BME280;13479;49.044;8.716;2022-11-28T18:15:57;98736.56;;;8.83;87.60
25610;BME280;13479;49.044;8.716;2022-11-28T18:18:23;98753.50;;;8.91;86.73
25610;BME280;13479;49.044;8.716;2022-11-28T18:20:48;98748.97;;;8.82;86.52
25610;BME280;13479;49.044;8.716;2022-11-28T18:23:13;98736.88;;;8.68;86.91
25610;BME280;13479;49.044;8.716;2022-11-28T18:25:43;98712.28;;;8.56;87.51
25610;BME280;13479;49.044;8.716;2022-11-28T18:28:09;98691.94;;;8.57;88.37
25610;BME280;13479;49.044;8.716;2022-11-28T18:30:42;98702.19;;;8.50;88.70
25610;BME280;13479;49.044;8.716;2022-11-28T18:33:08;98709.44;;;8.48;89.12
25610;BME280;13479;49.044;8.716;2022-11-28T18:35:33;98719.00;;;8.60;89.67
25610;BME280;13479;49.044;8.716;2022-11-28T18:37:58;98723.19;;;8.63;89.59
25610;BME280;13479;49.044;8.716;2022-11-28T18:40:24;98735.94;;;8.58;89.64
25610;BME280;13479;49.044;8.716;2022-11-28T18:42:49;98733.19;;;8.59;89.76
25610;BME280;13479;49.044;8.716;2022-11-28T18:45:14;98724.78;;;8.54;89.86
25610;BME280;13479;49.044;8.716;2022-11-28T18:47:39;98736.81;;;8.58;90.17
25610;BME280;13479;49.044;8.716;2022-11-28T18:50:05;98733.88;;;8.61;90.38
25610;BME280;13479;49.044;8.716;2022-11-28T18:52:31;98739.19;;;8.61;90.68
25610;BME280;13479;49.044;8.716;2022-11-28T18:54:56;98745.47;;;8.60;90.37
25610;BME280;13479;49.044;8.716;2022-11-28T18:57:21;98746.88;;;8.64;90.65
25610;BME280;13479;49.044;8.716;2022-11-28T18:59:47;98745.19;;;8.63;90.75
25610;BME280;13479;49.044;8.716;2022-11-28T19:02:12;98753.84;;;8.65;90.86
25610;BME280;13479;49.044;8.716;2022-11-28T19:04:38;98750.09;;;8.68;91.03
25610;BME280;13479;49.044;8.716;2022-11-28T19:07:03;98747.34;;;8.70;90.89
25610;BME280;13479;49.044;8.716;2022-11-28T19:09:29;98756.97;;;8.71;90.98
25610;BME280;13479;49.044;8.716;2022-11-28T19:11:54;98748.66;;;8.75;90.95
25610;BME280;13479;49.044;8.716;2022-11-28T19:14:20;98747.78;;;8.75;90.81
25610;BME280;13479;49.044;8.716;2022-11-28T19:16:46;98754.75;;;8.76;90.72
25610;BME280;13479;49.044;8.716;2022-11-28T19:19:13;98762.69;;;8.76;90.69
25610;BME280;13479;49.044;8.716;2022-11-28T19:21:39;98771.50;;;8.76;90.50
25610;BME280;13479;49.044;8.716;2022-11-28T19:24:04;98769.19;;;8.83;90.24
25610;BME280;13479;49.044;8.716;2022-11-28T19:26:32;98776.13;;;8.84;89.97
25610;BME280;13479;49.044;8.716;2022-11-28T19:28:58;98774.47;;;8.83;90.09
25610;BME280;13479;49.044;8.716;2022-11-28T19:31:29;98773.75;;;8.81;90.04
25610;BME280;13479;49.044;8.716;2022-11-28T19:34:06;98761.69;;;8.88;90.14
25610;BME280;13479;49.044;8.716;2022-11-28T19:36:35;98772.53;;;8.85;90.00
25610;BME280;13479;49.044;8.716;2022-11-28T19:39:02;98773.25;;;8.87;90.02
25610;BME280;13479;49.044;8.716;2022-11-28T19:41:28;98770.84;;;8.84;89.80
25610;BME280;13479;49.044;8.716;2022-11-28T19:43:54;98764.00;;;8.81;89.79
25610;BME280;13479;49.044;8.716;2022-11-28T19:46:19;98773.25;;;8.87;89.91
25610;BME280;13479;49.044;8.716;2022-11-28T19:48:45;98781.31;;;8.86;89.61
25610;BME280;13479;49.044;8.716;2022-11-28T19:51:10;98776.41;;;8.81;89.41
25610;BME280;13479;49.044;8.716;2022-11-28T19:53:38;98770.66;;;8.76;89.39
25610;BME280;13479;49.044;8.716;2022-11-28T19:56:10;98768.72;;;8.78;89.52
25610;BME280;13479;49.044;8.716;2022-11-28T19:58:37;98764.59;;;8.85;89.75
25610;BME280;13479;49.044;8.716;2022-11-28T20:01:22;98781.03;;;9.00;89.09
25610;BME280;13479;49.044;8.716;2022-11-28T20:03:49;98792.63;;;9.09;88.38
25610;BME280;13479;49.044;8.716;2022-11-28T20:06:23;98776.75;;;9.09;87.93
25610;BME280;13479;49.044;8.716;2022-11-28T20:08:50;98766.44;;;9.06;87.98
25610;BME280;13479;49.044;8.716;2022-11-28T20:11:19;98762.78;;;9.07;87.63